sensor_id;sensor_type;location;lat;lon;timestamp;P1;durP1;ratioP1;P2;durP2;ratioP2
2622;SDS011;1321;48.690;9.022;2023-07-20T00:01:21;10.63;;;10.13;;
2622;SDS011;1321;48.690;9.022;2023-07-20T00:03:49;10.57;;;10.10;;
2622;SDS011;1321;48.690;9.022;2023-07-20T00:06:21;11.23;;;10.93;;
2622;SDS011;1321;48.690;9.022;2023-07-20T00:08:51;10.43;;;10.07;;
2622;SDS011;1321;48.690;9.022;2023-07-20T00:11:19;11.00;;;10.33;;
2622;SDS011;1321;48.690;9.022;2023-07-20T00:13:49;10.83;;;10.40;;
2622;SDS011;1321;48.690;9.022;2023-07-20T00:16:17;10.50;;;10.07;;
2622;SDS011;1321;48.690;9.022;2023-07-20T00:18:46;9.83;;;9.53;;
2622;SDS011;1321;48.690;9.022;2023-07-20T00:21:15;10.13;;;9.83;;
2622;SDS011;1321;48.690;9.022;2023-07-20T00:23:43;9.90;;;9.60;;
2622;SDS011;1321;48.690;9.022;2023-07-20T00:26:11;10.30;;;9.50;;
2622;SDS011;1321;48.690;9.022;2023-07-20T00:28:39;10.00;;;9.60;;
2622;SDS011;1321;48.690;9.022;2023-07-20T00:31:09;10.77;;;9.83;;
2622;SDS011;1321;48.690;9.022;2023-07-20T00:33:37;10.10;;;9.70;;
2622;SDS011;1321;48.690;9.022;2023-07-20T00:36:06;9.80;;;9.50;;
2622;SDS011;1321;48.690;9.022;2023-07-20T00:38:34;10.30;;;9.90;;
2622;SDS011;1321;48.690;9.022;2023-07-20T00:41:02;10.10;;;9.70;;
2622;SDS011;1321;48.690;9.022;2023-07-20T00:43:31;10.13;;;9.73;;
2622;SDS011;1321;48.690;9.022;2023-07-20T00:45:59;10.40;;;10.00;;
2622;SDS011;1321;48.690;9.022;2023-07-20T00:48:30;10.00;;;9.63;;
2622;SDS011;1321;48.690;9.022;2023-07-20T00:50:59;10.53;;;9.77;;
2622;SDS011;1321;48.690;9.022;2023-07-20T00:53:29;9.73;;;9.43;;
2622;SDS011;1321;48.690;9.022;2023-07-20T00:55:58;10.07;;;9.77;;
2622;SDS011;1321;48.690;9.022;2023-07-20T00:58:26;10.20;;;9.90;;
2622;SDS011;1321;48.690;9.022;2023-07-20T01:00:54;11.03;;;10.00;;
2622;SDS011;1321;48.690;9.022;2023-07-20T01:03:22;10.07;;;9.67;;
2622;SDS011;1321;48.690;9.022;2023-07-20T01:05:54;9.87;;;9.57;;
2622;SDS011;1321;48.690;9.022;2023-07-20T01:08:29;10.10;;;9.70;;
2622;SDS011;1321;48.690;9.022;2023-07-20T01:11:05;10.20;;;9.63;;
2622;SDS011;1321;48.690;9.022;2023-07-20T01:13:40;9.90;;;9.50;;
2622;SDS011;1321;48.690;9.022;2023-07-20T01:16:10;10.27;;;9.70;;
2622;SDS011;1321;48.690;9.022;2023-07-20T01:18:38;9.77;;;9.47;;
2622;SDS011;1321;48.690;9.022;2023-07-20T01:21:09;10.30;;;9.80;;
2622;SDS011;1321;48.690;9.022;2023-07-20T01:27:00;10.07;;;9.67;;
2622;SDS011;1321;48.690;9.022;2023-07-20T01:29:54;10.27;;;9.80;;
2622;SDS011;1321;48.690;9.022;2023-07-20T01:32:32;10.10;;;9.60;;
2622;SDS011;1321;48.690;9.022;2023-07-20T01:35:02;9.90;;;9.50;;
2622;SDS011;1321;48.690;9.022;2023-07-20T01:37:33;9.77;;;9.47;;
2622;SDS011;1321;48.690;9.022;2023-07-20T01:40:02;9.40;;;9.10;;
2622;SDS011;1321;48.690;9.022;2023-07-20T01:42:31;9.87;;;9.47;;
2622;SDS011;1321;48.690;9.022;2023-07-20T01:44:59;9.50;;;9.20;;
2622;SDS011;1321;48.690;9.022;2023-07-20T01:47:28;9.60;;;9.30;;
2622;SDS011;1321;48.690;9.022;2023-07-20T01:49:57;9.33;;;9.03;;
2622;SDS011;1321;48.690;9.022;2023-07-20T01:52:26;10.17;;;9.77;;
2622;SDS011;1321;48.690;9.022;2023-07-20T01:54:55;10.23;;;9.73;;
2622;SDS011;1321;48.690;9.022;2023-07-20T01:57:24;10.30;;;9.70;;
2622;SDS011;1321;48.690;9.022;2023-07-20T01:59:52;10.20;;;9.70;;
2622;SDS011;1321;48.690;9.022;2023-07-20T02:02:20;9.93;;;9.53;;
2622;SDS011;1321;48.690;9.022;2023-07-20T02:04:50;10.10;;;9.70;;
2622;SDS011;1321;48.690;9.022;2023-07-20T02:07:20;10.37;;;10.07;;
2622;SDS011;1321;48.690;9.022;2023-07-20T02:09:48;10.30;;;9.90;;
2622;SDS011;1321;48.690;9.022;2023-07-20T02:12:17;9.67;;;9.37;;
2622;SDS011;1321;48.690;9.022;2023-07-20T02:14:45;10.20;;;9.57;;
2622;SDS011;1321;48.690;9.022;2023-07-20T02:17:13;9.90;;;9.50;;
2622;SDS011;1321;48.690;9.022;2023-07-20T02:19:42;10.13;;;9.73;;
2622;SDS011;1321;48.690;9.022;2023-07-20T02:22:10;10.33;;;9.93;;
2622;SDS011;1321;48.690;9.022;2023-07-20T02:24:40;9.70;;;9.37;;
2622;SDS011;1321;48.690;9.022;2023-07-20T02:27:11;10.03;;;9.67;;
2622;SDS011;1321;48.690;9.022;2023-07-20T02:29:40;10.50;;;10.03;;
2622;SDS011;1321;48.690;9.022;2023-07-20T02:32:08;9.83;;;9.43;;
2622;SDS011;1321;48.690;9.022;2023-07-20T02:34:37;9.77;;;9.47;;
2622;SDS011;1321;48.690;9.022;2023-07-20T02:37:05;9.60;;;9.30;;
2622;SDS011;1321;48.690;9.022;2023-07-20T02:39:37;10.17;;;9.67;;
2622;SDS011;1321;48.690;9.022;2023-07-20T02:42:07;10.03;;;9.73;;
2622;SDS011;1321;48.690;9.022;2023-07-20T02:44:35;10.10;;;9.57;;
2622;SDS011;1321;48.690;9.022;2023-07-20T02:47:04;10.37;;;9.97;;
2622;SDS011;1321;48.690;9.022;2023-07-20T02:49:32;9.90;;;9.50;;
2622;SDS011;1321;48.690;9.022;2023-07-20T02:52:01;9.60;;;9.30;;
2622;SDS011;1321;48.690;9.022;2023-07-20T02:54:29;9.43;;;9.23;;
2622;SDS011;1321;48.690;9.022;2023-07-20T02:56:58;9.97;;;9.60;;
2622;SDS011;1321;48.690;9.022;2023-07-20T02:59:27;10.27;;;9.87;;
2622;SDS011;1321;48.690;9.022;2023-07-20T03:01:56;10.60;;;10.10;;
2622;SDS011;1321;48.690;9.022;2023-07-20T03:04:25;10.17;;;9.87;;
2622;SDS011;1321;48.690;9.022;2023-07-20T03:06:53;10.30;;;10.00;;
2622;SDS011;1321;48.690;9.022;2023-07-20T03:09:22;10.87;;;10.40;;
2622;SDS011;1321;48.690;9.022;2023-07-20T03:11:50;10.50;;;10.20;;
2622;SDS011;1321;48.690;9.022;2023-07-20T03:14:20;10.07;;;9.77;;
2622;SDS011;1321;48.690;9.022;2023-07-20T03:16:50;10.70;;;10.37;;
2622;SDS011;1321;48.690;9.022;2023-07-20T03:19:18;10.90;;;10.50;;
2622;SDS011;1321;48.690;9.022;2023-07-20T03:21:46;10.40;;;9.90;;
2622;SDS011;1321;48.690;9.022;2023-07-20T03:24:16;11.07;;;10.57;;
2622;SDS011;1321;48.690;9.022;2023-07-20T03:26:44;10.50;;;10.20;;
2622;SDS011;1321;48.690;9.022;2023-07-20T03:29:12;10.67;;;10.20;;
2622;SDS011;1321;48.690;9.022;2023-07-20T03:31:43;10.33;;;9.93;;
2622;SDS011;1321;48.690;9.022;2023-07-20T03:34:12;10.60;;;10.10;;
2622;SDS011;1321;48.690;9.022;2023-07-20T03:36:41;10.60;;;10.20;;
2622;SDS011;1321;48.690;9.022;2023-07-20T03:39:10;10.13;;;9.93;;
2622;SDS011;1321;48.690;9.022;2023-07-20T03:41:38;10.20;;;9.90;;
2622;SDS011;1321;48.690;9.022;2023-07-20T03:44:06;10.73;;;10.33;;
2622;SDS011;1321;48.690;9.022;2023-07-20T03:46:34;11.00;;;10.50;;
2622;SDS011;1321;48.690;9.022;2023-07-20T03:49:05;10.60;;;10.27;;
2622;SDS011;1321;48.690;9.022;2023-07-20T03:51:35;11.00;;;10.60;;
2622;SDS011;1321;48.690;9.022;2023-07-20T03:54:03;10.63;;;10.33;;
2622;SDS011;1321;48.690;9.022;2023-07-20T03:59:02;10.90;;;10.60;;
2622;SDS011;1321;48.690;9.022;2023-07-20T04:01:30;10.90;;;10.40;;
2622;SDS011;1321;48.690;9.022;2023-07-20T04:04:06;10.30;;;10.00;;
2622;SDS011;1321;48.690;9.022;2023-07-20T04:06:35;9.90;;;9.60;;
2622;SDS011;1321;48.690;9.022;2023-07-20T04:09:03;10.40;;;10.00;;
2622;SDS011;1321;48.690;9.022;2023-07-20T04:11:32;11.43;;;10.90;;
2622;SDS011;1321;48.690;9.022;2023-07-20T04:14:00;10.47;;;10.17;;
2622;SDS011;1321;48.690;9.022;2023-07-20T04:16:29;10.90;;;10.40;;
2622;SDS011;1321;48.690;9.022;2023-07-20T04:18:57;10.47;;;10.17;;
2622;SDS011;1321;48.690;9.022;2023-07-20T04:21:27;11.27;;;10.67;;
2622;SDS011;1321;48.690;9.022;2023-07-20T04:23:55;11.10;;;10.63;;
2622;SDS011;1321;48.690;9.022;2023-07-20T04:26:24;10.73;;;10.30;;
2622;SDS011;1321;48.690;9.022;2023-07-20T04:28:52;11.30;;;10.60;;
2622;SDS011;1321;48.690;9.022;2023-07-20T04:31:20;10.80;;;10.30;;
2622;SDS011;1321;48.690;9.022;2023-07-20T04:33:48;11.67;;;11.27;;
2622;SDS011;1321;48.690;9.022;2023-07-20T04:36:16;11.27;;;10.87;;
2622;SDS011;1321;48.690;9.022;2023-07-20T04:38:48;10.50;;;10.20;;
2622;SDS011;1321;48.690;9.022;2023-07-20T04:41:16;11.10;;;10.70;;
2622;SDS011;1321;48.690;9.022;2023-07-20T04:43:44;12.37;;;11.70;;
2622;SDS011;1321;48.690;9.022;2023-07-20T04:46:12;11.03;;;10.57;;
2622;SDS011;1321;48.690;9.022;2023-07-20T04:48:40;10.47;;;10.07;;
2622;SDS011;1321;48.690;9.022;2023-07-20T04:51:09;10.97;;;10.57;;
2622;SDS011;1321;48.690;9.022;2023-07-20T04:53:38;10.70;;;10.20;;
2622;SDS011;1321;48.690;9.022;2023-07-20T04:56:07;11.43;;;11.00;;
2622;SDS011;1321;48.690;9.022;2023-07-20T04:58:36;11.40;;;10.80;;
2622;SDS011;1321;48.690;9.022;2023-07-20T05:01:04;13.33;;;12.73;;
2622;SDS011;1321;48.690;9.022;2023-07-20T05:03:32;11.70;;;11.20;;
2622;SDS011;1321;48.690;9.022;2023-07-20T05:06:01;12.20;;;11.80;;
2622;SDS011;1321;48.690;9.022;2023-07-20T05:08:29;12.03;;;11.63;;
2622;SDS011;1321;48.690;9.022;2023-07-20T05:10:57;12.07;;;11.55;;
2622;SDS011;1321;48.690;9.022;2023-07-20T05:13:28;12.43;;;12.03;;
2622;SDS011;1321;48.690;9.022;2023-07-20T05:15:56;12.60;;;11.83;;
2622;SDS011;1321;48.690;9.022;2023-07-20T05:18:24;12.30;;;11.80;;
2622;SDS011;1321;48.690;9.022;2023-07-20T05:20:53;11.90;;;11.50;;
2622;SDS011;1321;48.690;9.022;2023-07-20T05:23:23;12.43;;;11.90;;
2622;SDS011;1321;48.690;9.022;2023-07-20T05:25:53;11.77;;;11.37;;
2622;SDS011;1321;48.690;9.022;2023-07-20T05:28:22;12.37;;;11.73;;
2622;SDS011;1321;48.690;9.022;2023-07-20T05:30:52;12.67;;;11.97;;
2622;SDS011;1321;48.690;9.022;2023-07-20T05:33:21;13.13;;;12.27;;
2622;SDS011;1321;48.690;9.022;2023-07-20T05:35:49;12.33;;;11.70;;
2622;SDS011;1321;48.690;9.022;2023-07-20T05:38:17;11.80;;;11.30;;
2622;SDS011;1321;48.690;9.022;2023-07-20T05:40:45;11.80;;;11.30;;
2622;SDS011;1321;48.690;9.022;2023-07-20T05:43:14;12.00;;;11.33;;
2622;SDS011;1321;48.690;9.022;2023-07-20T05:45:42;12.57;;;11.70;;
2622;SDS011;1321;48.690;9.022;2023-07-20T05:48:12;12.00;;;11.40;;
2622;SDS011;1321;48.690;9.022;2023-07-20T05:50:41;12.07;;;11.67;;
2622;SDS011;1321;48.690;9.022;2023-07-20T05:53:10;14.23;;;13.10;;
2622;SDS011;1321;48.690;9.022;2023-07-20T05:55:39;12.50;;;11.80;;
2622;SDS011;1321;48.690;9.022;2023-07-20T05:58:07;12.57;;;11.87;;
2622;SDS011;1321;48.690;9.022;2023-07-20T06:00:35;13.13;;;12.37;;
2622;SDS011;1321;48.690;9.022;2023-07-20T06:03:03;12.60;;;12.00;;
2622;SDS011;1321;48.690;9.022;2023-07-20T06:05:33;12.00;;;11.50;;
2622;SDS011;1321;48.690;9.022;2023-07-20T06:08:03;13.00;;;12.30;;
2622;SDS011;1321;48.690;9.022;2023-07-20T06:10:34;13.03;;;12.23;;
2622;SDS011;1321;48.690;9.022;2023-07-20T06:13:02;12.47;;;11.87;;
2622;SDS011;1321;48.690;9.022;2023-07-20T06:15:38;11.97;;;11.50;;
2622;SDS011;1321;48.690;9.022;2023-07-20T06:18:07;12.40;;;11.67;;
2622;SDS011;1321;48.690;9.022;2023-07-20T06:20:37;12.10;;;11.60;;
2622;SDS011;1321;48.690;9.022;2023-07-20T06:23:05;13.60;;;12.57;;
2622;SDS011;1321;48.690;9.022;2023-07-20T06:25:34;13.00;;;12.10;;
2622;SDS011;1321;48.690;9.022;2023-07-20T06:28:02;13.33;;;12.70;;
2622;SDS011;1321;48.690;9.022;2023-07-20T06:30:33;12.53;;;11.83;;
2622;SDS011;1321;48.690;9.022;2023-07-20T06:33:02;12.50;;;11.80;;
2622;SDS011;1321;48.690;9.022;2023-07-20T06:35:30;12.30;;;11.90;;
2622;SDS011;1321;48.690;9.022;2023-07-20T06:38:00;12.47;;;11.87;;
2622;SDS011;1321;48.690;9.022;2023-07-20T06:40:33;12.57;;;11.93;;
2622;SDS011;1321;48.690;9.022;2023-07-20T06:43:01;12.70;;;12.00;;
2622;SDS011;1321;48.690;9.022;2023-07-20T06:45:32;12.10;;;11.70;;
2622;SDS011;1321;48.690;9.022;2023-07-20T06:48:01;12.27;;;11.77;;
2622;SDS011;1321;48.690;9.022;2023-07-20T06:50:30;13.57;;;12.87;;
2622;SDS011;1321;48.690;9.022;2023-07-20T06:53:04;12.23;;;11.73;;
2622;SDS011;1321;48.690;9.022;2023-07-20T06:55:36;12.60;;;12.00;;
2622;SDS011;1321;48.690;9.022;2023-07-20T06:58:08;13.13;;;12.40;;
2622;SDS011;1321;48.690;9.022;2023-07-20T07:00:36;12.63;;;12.10;;
2622;SDS011;1321;48.690;9.022;2023-07-20T07:03:04;13.07;;;12.47;;
2622;SDS011;1321;48.690;9.022;2023-07-20T07:05:35;12.30;;;11.90;;
2622;SDS011;1321;48.690;9.022;2023-07-20T07:08:06;13.13;;;12.63;;
2622;SDS011;1321;48.690;9.022;2023-07-20T07:10:35;12.67;;;12.17;;
2622;SDS011;1321;48.690;9.022;2023-07-20T07:13:04;13.60;;;12.80;;
2622;SDS011;1321;48.690;9.022;2023-07-20T07:15:33;13.23;;;12.63;;
2622;SDS011;1321;48.690;9.022;2023-07-20T07:18:04;12.67;;;12.07;;
2622;SDS011;1321;48.690;9.022;2023-07-20T07:20:33;12.40;;;12.00;;
2622;SDS011;1321;48.690;9.022;2023-07-20T07:23:01;12.30;;;11.90;;
2622;SDS011;1321;48.690;9.022;2023-07-20T07:25:31;12.43;;;12.03;;
2622;SDS011;1321;48.690;9.022;2023-07-20T07:28:00;14.00;;;13.30;;
2622;SDS011;1321;48.690;9.022;2023-07-20T07:30:28;12.77;;;12.33;;
2622;SDS011;1321;48.690;9.022;2023-07-20T07:32:59;12.73;;;12.30;;
2622;SDS011;1321;48.690;9.022;2023-07-20T07:35:34;12.80;;;12.40;;
2622;SDS011;1321;48.690;9.022;2023-07-20T07:38:03;12.90;;;12.50;;
2622;SDS011;1321;48.690;9.022;2023-07-20T07:40:53;13.67;;;12.70;;
2622;SDS011;1321;48.690;9.022;2023-07-20T07:43:23;13.33;;;12.63;;
2622;SDS011;1321;48.690;9.022;2023-07-20T07:45:53;13.73;;;13.13;;
2622;SDS011;1321;48.690;9.022;2023-07-20T07:48:22;13.43;;;12.93;;
2622;SDS011;1321;48.690;9.022;2023-07-20T07:50:51;13.40;;;12.90;;
2622;SDS011;1321;48.690;9.022;2023-07-20T07:53:21;13.60;;;13.10;;
2622;SDS011;1321;48.690;9.022;2023-07-20T07:55:53;14.60;;;13.77;;
2622;SDS011;1321;48.690;9.022;2023-07-20T07:58:21;13.03;;;12.63;;
2622;SDS011;1321;48.690;9.022;2023-07-20T08:00:50;13.27;;;12.73;;
2622;SDS011;1321;48.690;9.022;2023-07-20T08:03:19;13.63;;;12.90;;
2622;SDS011;1321;48.690;9.022;2023-07-20T08:05:48;13.70;;;13.20;;
2622;SDS011;1321;48.690;9.022;2023-07-20T08:08:17;13.27;;;12.77;;
2622;SDS011;1321;48.690;9.022;2023-07-20T08:10:46;13.37;;;12.87;;
2622;SDS011;1321;48.690;9.022;2023-07-20T08:13:15;13.53;;;13.03;;
2622;SDS011;1321;48.690;9.022;2023-07-20T08:15:48;12.80;;;12.40;;
2622;SDS011;1321;48.690;9.022;2023-07-20T08:18:17;13.10;;;12.60;;
2622;SDS011;1321;48.690;9.022;2023-07-20T08:20:46;14.10;;;13.60;;
2622;SDS011;1321;48.690;9.022;2023-07-20T08:23:15;14.33;;;13.63;;
2622;SDS011;1321;48.690;9.022;2023-07-20T08:25:44;13.00;;;12.40;;
2622;SDS011;1321;48.690;9.022;2023-07-20T08:28:13;13.33;;;12.77;;
2622;SDS011;1321;48.690;9.022;2023-07-20T08:30:44;13.37;;;12.80;;
2622;SDS011;1321;48.690;9.022;2023-07-20T08:33:14;13.33;;;12.80;;
2622;SDS011;1321;48.690;9.022;2023-07-20T08:35:44;13.30;;;12.90;;
2622;SDS011;1321;48.690;9.022;2023-07-20T08:38:13;13.07;;;12.60;;
2622;SDS011;1321;48.690;9.022;2023-07-20T08:40:42;13.37;;;12.87;;
2622;SDS011;1321;48.690;9.022;2023-07-20T08:43:15;13.53;;;13.00;;
2622;SDS011;1321;48.690;9.022;2023-07-20T08:45:46;13.50;;;12.80;;
2622;SDS011;1321;48.690;9.022;2023-07-20T08:48:16;13.07;;;12.67;;
2622;SDS011;1321;48.690;9.022;2023-07-20T08:50:46;12.60;;;12.20;;
2622;SDS011;1321;48.690;9.022;2023-07-20T08:53:16;13.50;;;12.90;;
2622;SDS011;1321;48.690;9.022;2023-07-20T08:55:45;13.07;;;12.57;;
2622;SDS011;1321;48.690;9.022;2023-07-20T08:58:16;13.13;;;12.60;;
2622;SDS011;1321;48.690;9.022;2023-07-20T09:00:47;13.70;;;13.00;;
2622;SDS011;1321;48.690;9.022;2023-07-20T09:03:18;12.77;;;12.37;;
2622;SDS011;1321;48.690;9.022;2023-07-20T09:05:47;12.70;;;12.20;;
2622;SDS011;1321;48.690;9.022;2023-07-20T09:08:16;12.60;;;12.10;;
2622;SDS011;1321;48.690;9.022;2023-07-20T09:10:44;12.60;;;12.20;;
2622;SDS011;1321;48.690;9.022;2023-07-20T09:13:15;12.60;;;12.20;;
2622;SDS011;1321;48.690;9.022;2023-07-20T09:15:53;12.77;;;12.27;;
2622;SDS011;1321;48.690;9.022;2023-07-20T09:18:25;12.80;;;12.30;;
2622;SDS011;1321;48.690;9.022;2023-07-20T09:20:58;12.07;;;11.67;;
2622;SDS011;1321;48.690;9.022;2023-07-20T09:23:31;12.20;;;11.70;;
2622;SDS011;1321;48.690;9.022;2023-07-20T09:26:00;11.73;;;11.23;;
2622;SDS011;1321;48.690;9.022;2023-07-20T09:28:41;11.30;;;11.03;;
2622;SDS011;1321;48.690;9.022;2023-07-20T09:31:16;11.80;;;11.40;;
2622;SDS011;1321;48.690;9.022;2023-07-20T09:33:45;12.00;;;11.60;;
2622;SDS011;1321;48.690;9.022;2023-07-20T09:36:18;12.00;;;11.50;;
2622;SDS011;1321;48.690;9.022;2023-07-20T09:39:06;11.80;;;11.50;;
2622;SDS011;1321;48.690;9.022;2023-07-20T09:41:40;12.10;;;11.80;;
2622;SDS011;1321;48.690;9.022;2023-07-20T09:44:15;12.80;;;12.30;;
2622;SDS011;1321;48.690;9.022;2023-07-20T09:46:51;11.93;;;11.40;;
2622;SDS011;1321;48.690;9.022;2023-07-20T09:49:25;11.90;;;11.60;;
2622;SDS011;1321;48.690;9.022;2023-07-20T09:51:56;11.47;;;11.10;;
2622;SDS011;1321;48.690;9.022;2023-07-20T09:54:26;11.93;;;11.63;;
2622;SDS011;1321;48.690;9.022;2023-07-20T09:57:00;11.60;;;11.10;;
2622;SDS011;1321;48.690;9.022;2023-07-20T09:59:30;11.20;;;10.90;;
2622;SDS011;1321;48.690;9.022;2023-07-20T10:02:01;11.53;;;11.23;;
2622;SDS011;1321;48.690;9.022;2023-07-20T10:04:33;10.60;;;10.40;;
2622;SDS011;1321;48.690;9.022;2023-07-20T10:07:05;11.70;;;11.20;;
2622;SDS011;1321;48.690;9.022;2023-07-20T10:09:39;11.17;;;10.77;;
2622;SDS011;1321;48.690;9.022;2023-07-20T10:12:08;10.97;;;10.67;;
2622;SDS011;1321;48.690;9.022;2023-07-20T10:14:44;11.10;;;10.80;;
2622;SDS011;1321;48.690;9.022;2023-07-20T10:17:27;10.70;;;10.40;;
2622;SDS011;1321;48.690;9.022;2023-07-20T10:19:56;11.37;;;11.07;;
2622;SDS011;1321;48.690;9.022;2023-07-20T10:22:29;11.23;;;10.93;;
2622;SDS011;1321;48.690;9.022;2023-07-20T10:25:07;10.40;;;10.10;;
2622;SDS011;1321;48.690;9.022;2023-07-20T10:27:36;11.63;;;10.87;;
2622;SDS011;1321;48.690;9.022;2023-07-20T10:30:06;9.90;;;9.70;;
2622;SDS011;1321;48.690;9.022;2023-07-20T10:32:37;10.40;;;10.10;;
2622;SDS011;1321;48.690;9.022;2023-07-20T10:35:11;10.37;;;10.07;;
2622;SDS011;1321;48.690;9.022;2023-07-20T10:37:50;10.73;;;10.43;;
2622;SDS011;1321;48.690;9.022;2023-07-20T10:40:27;10.87;;;10.57;;
2622;SDS011;1321;48.690;9.022;2023-07-20T10:43:03;10.27;;;9.80;;
2622;SDS011;1321;48.690;9.022;2023-07-20T10:45:36;10.63;;;10.23;;
2622;SDS011;1321;48.690;9.022;2023-07-20T10:48:16;10.30;;;10.00;;
2622;SDS011;1321;48.690;9.022;2023-07-20T10:50:48;10.80;;;10.30;;
2622;SDS011;1321;48.690;9.022;2023-07-20T10:53:38;10.43;;;10.03;;
2622;SDS011;1321;48.690;9.022;2023-07-20T10:56:07;10.40;;;10.20;;
2622;SDS011;1321;48.690;9.022;2023-07-20T10:58:39;10.50;;;10.20;;
2622;SDS011;1321;48.690;9.022;2023-07-20T11:01:09;10.90;;;10.60;;
2622;SDS011;1321;48.690;9.022;2023-07-20T11:03:49;11.33;;;11.03;;
2622;SDS011;1321;48.690;9.022;2023-07-20T11:06:32;10.00;;;9.80;;
2622;SDS011;1321;48.690;9.022;2023-07-20T11:09:04;9.80;;;9.40;;
2622;SDS011;1321;48.690;9.022;2023-07-20T11:11:35;10.33;;;10.03;;
2622;SDS011;1321;48.690;9.022;2023-07-20T11:14:05;9.90;;;9.60;;
2622;SDS011;1321;48.690;9.022;2023-07-20T11:16:35;10.27;;;9.83;;
2622;SDS011;1321;48.690;9.022;2023-07-20T11:19:05;10.13;;;9.47;;
2622;SDS011;1321;48.690;9.022;2023-07-20T11:22:00;9.80;;;9.50;;
2622;SDS011;1321;48.690;9.022;2023-07-20T11:24:39;9.93;;;9.73;;
2622;SDS011;1321;48.690;9.022;2023-07-20T11:27:20;9.50;;;9.17;;
2622;SDS011;1321;48.690;9.022;2023-07-20T11:29:53;9.13;;;8.90;;
2622;SDS011;1321;48.690;9.022;2023-07-20T11:32:22;9.13;;;8.57;;
2622;SDS011;1321;48.690;9.022;2023-07-20T11:34:52;9.50;;;9.20;;
2622;SDS011;1321;48.690;9.022;2023-07-20T11:37:25;9.50;;;9.30;;
2622;SDS011;1321;48.690;9.022;2023-07-20T11:39:55;9.90;;;9.70;;
2622;SDS011;1321;48.690;9.022;2023-07-20T11:42:28;10.17;;;9.87;;
2622;SDS011;1321;48.690;9.022;2023-07-20T11:44:59;10.00;;;9.80;;
2622;SDS011;1321;48.690;9.022;2023-07-20T11:47:32;10.27;;;9.97;;
2622;SDS011;1321;48.690;9.022;2023-07-20T11:50:04;9.60;;;9.40;;
2622;SDS011;1321;48.690;9.022;2023-07-20T11:52:33;9.30;;;9.10;;
2622;SDS011;1321;48.690;9.022;2023-07-20T11:55:02;9.20;;;8.90;;
2622;SDS011;1321;48.690;9.022;2023-07-20T11:57:33;9.97;;;9.67;;
2622;SDS011;1321;48.690;9.022;2023-07-20T12:00:05;10.17;;;9.77;;
2622;SDS011;1321;48.690;9.022;2023-07-20T12:02:38;9.67;;;9.33;;
2622;SDS011;1321;48.690;9.022;2023-07-20T12:05:08;9.00;;;8.70;;
2622;SDS011;1321;48.690;9.022;2023-07-20T12:07:39;10.30;;;10.00;;
2622;SDS011;1321;48.690;9.022;2023-07-20T12:10:08;10.13;;;9.73;;
2622;SDS011;1321;48.690;9.022;2023-07-20T12:12:38;9.83;;;9.53;;
2622;SDS011;1321;48.690;9.022;2023-07-20T12:15:14;9.60;;;9.20;;
2622;SDS011;1321;48.690;9.022;2023-07-20T12:17:44;8.93;;;8.73;;
2622;SDS011;1321;48.690;9.022;2023-07-20T12:20:24;9.30;;;9.00;;
2622;SDS011;1321;48.690;9.022;2023-07-20T12:22:55;9.03;;;8.83;;
2622;SDS011;1321;48.690;9.022;2023-07-20T12:25:32;10.00;;;9.70;;
2622;SDS011;1321;48.690;9.022;2023-07-20T12:28:11;10.00;;;9.50;;
2622;SDS011;1321;48.690;9.022;2023-07-20T12:30:40;10.07;;;9.67;;
2622;SDS011;1321;48.690;9.022;2023-07-20T12:33:11;10.00;;;9.70;;
2622;SDS011;1321;48.690;9.022;2023-07-20T12:35:44;10.17;;;9.87;;
2622;SDS011;1321;48.690;9.022;2023-07-20T12:38:16;10.30;;;9.93;;
2622;SDS011;1321;48.690;9.022;2023-07-20T12:40:47;10.63;;;10.23;;
2622;SDS011;1321;48.690;9.022;2023-07-20T12:43:16;10.47;;;9.97;;
2622;SDS011;1321;48.690;9.022;2023-07-20T12:45:46;10.20;;;10.00;;
2622;SDS011;1321;48.690;9.022;2023-07-20T12:48:18;10.33;;;10.13;;
2622;SDS011;1321;48.690;9.022;2023-07-20T12:50:47;10.27;;;9.93;;
2622;SDS011;1321;48.690;9.022;2023-07-20T12:53:16;10.27;;;10.00;;
2622;SDS011;1321;48.690;9.022;2023-07-20T12:55:45;10.20;;;10.00;;
2622;SDS011;1321;48.690;9.022;2023-07-20T12:58:19;10.10;;;9.80;;
2622;SDS011;1321;48.690;9.022;2023-07-20T13:00:47;10.30;;;10.00;;
2622;SDS011;1321;48.690;9.022;2023-07-20T13:03:19;9.53;;;9.33;;
2622;SDS011;1321;48.690;9.022;2023-07-20T13:05:54;9.40;;;9.10;;
2622;SDS011;1321;48.690;9.022;2023-07-20T13:08:28;9.37;;;9.13;;
2622;SDS011;1321;48.690;9.022;2023-07-20T13:11:01;10.00;;;9.70;;
2622;SDS011;1321;48.690;9.022;2023-07-20T13:13:37;9.80;;;9.40;;
2622;SDS011;1321;48.690;9.022;2023-07-20T13:16:05;8.90;;;8.70;;
2622;SDS011;1321;48.690;9.022;2023-07-20T13:18:34;8.40;;;8.10;;
2622;SDS011;1321;48.690;9.022;2023-07-20T13:21:03;8.50;;;8.30;;
2622;SDS011;1321;48.690;9.022;2023-07-20T13:23:38;8.80;;;8.60;;
2622;SDS011;1321;48.690;9.022;2023-07-20T13:26:06;9.17;;;8.87;;
2622;SDS011;1321;48.690;9.022;2023-07-20T13:28:38;9.10;;;8.70;;
2622;SDS011;1321;48.690;9.022;2023-07-20T13:31:08;8.60;;;8.40;;
2622;SDS011;1321;48.690;9.022;2023-07-20T13:33:39;8.30;;;8.10;;
2622;SDS011;1321;48.690;9.022;2023-07-20T13:36:09;9.00;;;8.70;;
2622;SDS011;1321;48.690;9.022;2023-07-20T13:38:38;8.97;;;8.70;;
2622;SDS011;1321;48.690;9.022;2023-07-20T13:41:08;8.50;;;8.30;;
2622;SDS011;1321;48.690;9.022;2023-07-20T13:43:40;8.63;;;8.30;;
2622;SDS011;1321;48.690;9.022;2023-07-20T13:46:08;8.30;;;8.10;;
2622;SDS011;1321;48.690;9.022;2023-07-20T13:48:42;8.10;;;7.90;;
2622;SDS011;1321;48.690;9.022;2023-07-20T13:51:15;8.27;;;8.07;;
2622;SDS011;1321;48.690;9.022;2023-07-20T13:53:52;9.30;;;9.00;;
2622;SDS011;1321;48.690;9.022;2023-07-20T13:56:21;8.73;;;8.43;;
2622;SDS011;1321;48.690;9.022;2023-07-20T13:58:51;8.70;;;8.30;;
2622;SDS011;1321;48.690;9.022;2023-07-20T14:01:20;8.40;;;8.13;;
2622;SDS011;1321;48.690;9.022;2023-07-20T14:03:55;8.37;;;8.07;;
2622;SDS011;1321;48.690;9.022;2023-07-20T14:06:31;9.17;;;8.77;;
2622;SDS011;1321;48.690;9.022;2023-07-20T14:09:00;9.27;;;8.77;;
2622;SDS011;1321;48.690;9.022;2023-07-20T14:11:30;9.63;;;9.33;;
2622;SDS011;1321;48.690;9.022;2023-07-20T14:14:04;9.00;;;8.70;;
2622;SDS011;1321;48.690;9.022;2023-07-20T14:16:34;9.13;;;8.83;;
2622;SDS011;1321;48.690;9.022;2023-07-20T14:19:06;8.73;;;8.40;;
2622;SDS011;1321;48.690;9.022;2023-07-20T14:21:40;9.07;;;8.77;;
2622;SDS011;1321;48.690;9.022;2023-07-20T14:24:11;8.50;;;8.23;;
2622;SDS011;1321;48.690;9.022;2023-07-20T14:26:45;8.67;;;8.47;;
2622;SDS011;1321;48.690;9.022;2023-07-20T14:29:22;8.47;;;8.27;;
2622;SDS011;1321;48.690;9.022;2023-07-20T14:31:53;8.70;;;8.20;;
2622;SDS011;1321;48.690;9.022;2023-07-20T14:34:25;8.87;;;8.57;;
2622;SDS011;1321;48.690;9.022;2023-07-20T14:37:00;9.63;;;8.73;;
2622;SDS011;1321;48.690;9.022;2023-07-20T14:39:30;8.50;;;8.30;;
2622;SDS011;1321;48.690;9.022;2023-07-20T14:41:59;9.07;;;8.77;;
2622;SDS011;1321;48.690;9.022;2023-07-20T14:44:27;8.87;;;8.57;;
2622;SDS011;1321;48.690;9.022;2023-07-20T14:47:03;9.07;;;8.70;;
2622;SDS011;1321;48.690;9.022;2023-07-20T14:49:39;9.00;;;8.70;;
2622;SDS011;1321;48.690;9.022;2023-07-20T14:52:09;9.27;;;8.97;;
2622;SDS011;1321;48.690;9.022;2023-07-20T14:54:42;9.00;;;8.77;;
2622;SDS011;1321;48.690;9.022;2023-07-20T14:57:10;8.97;;;8.77;;
2622;SDS011;1321;48.690;9.022;2023-07-20T14:59:41;8.30;;;8.10;;
2622;SDS011;1321;48.690;9.022;2023-07-20T15:02:12;8.20;;;7.90;;
2622;SDS011;1321;48.690;9.022;2023-07-20T15:04:45;7.57;;;7.37;;
2622;SDS011;1321;48.690;9.022;2023-07-20T15:07:19;7.20;;;7.00;;
2622;SDS011;1321;48.690;9.022;2023-07-20T15:09:49;7.73;;;7.53;;
2622;SDS011;1321;48.690;9.022;2023-07-20T15:12:17;7.80;;;7.60;;
2622;SDS011;1321;48.690;9.022;2023-07-20T15:15:01;7.83;;;7.53;;
2622;SDS011;1321;48.690;9.022;2023-07-20T15:17:32;7.40;;;7.10;;
2622;SDS011;1321;48.690;9.022;2023-07-20T15:20:03;7.27;;;7.03;;
2622;SDS011;1321;48.690;9.022;2023-07-20T15:22:34;7.17;;;6.67;;
2622;SDS011;1321;48.690;9.022;2023-07-20T15:25:05;7.70;;;7.30;;